Hawick, United Kingdom
Current Conditions -  °F | °C
As of 4:50 AM on Saturday 25 Oct 2014 (Local Time) from EGOM Reporting Station
Broken Clouds Broken Clouds  
Wind Chill:   Ceiling: 4600
Heat Index:   Visibility: 6mi
Dew Point:   Wind: 14mph
Humidity: 93%   Direction: 230°SW
Pressure: 29.77"   Gusts: NA
Location:  55.42°N, 2.79°W
Report Text: EGOM 250350Z AUTO 23012KT 9999 FEW017/// BKN046/// 08/07 Q1008
Loading
Personal Weather Stations






























Interactive Weather Map
Tropical Storm Tracking
New forecast layout! Learn more

10-Day Weather Forecast

Advertisements
Track Severe Weather on mobile